Airfield :
LOGIN :

Register | Disclaimer

   EN    FR    IT 

 










Legend :    VFR   Marginal VFR   IFR   Intensive IFR   Very Intensive IFR
Visi :
Ceiling :
>= 8 km
>= 3000ft
5 to 8 km
1000 to 3000 ft
1500m to 5 km
500 to 1000 ft
800 to 1500m
200 to 500 ft
< 800m
< 200 ft
Symbols :   Thunderstorms  Fog  Heavy snow  Heavy precipitations  Wind > 20 kt
SIGMETs :     Misc.  Thunderstorms  Icing  Turbulence  Mountain Waves  Volcanic Ashes






- Airport Elevation : 53 ft
- IATA code : HAM


EDDH - Hamburg

CURRENT METAR :
  • 190520Z 21014KT 7000 RA FEW006 BKN011 04/03 Q1008 BECMG 4500 BKN008

EXPIRED METARs :
  • 190450Z 21015KT 7000 -RA FEW008 BKN011 BKN032 04/03 Q1009 BECMG 4500 BKN008
  • 190420Z 21012KT 8000 -RA FEW009 BKN011 BKN017 04/03 Q1009 BECMG 4500 BKN009
  • 190350Z 21013KT 9999 FEW009 BKN011 04/03 Q1010 BECMG 4500 -RA BKN009
  • 190320Z 20010KT 9999 FEW009 BKN012 04/03 Q1010 NOSIG

TAF TAF EDDH
Valid from the 19 at 06:00 until the 20 at 12:00 UTC


190500Z 1906/2012 20011KT 9000 SCT009 BKN013
TEMPO 1906/2009 4500 -RADZ BKN007
PROB40
TEMPO 1909/1922 22015G25KT 2500 RA BKN004
PROB30
TEMPO 1922/2006 21015G25KT
BECMG 2006/2008 22015G25KT SCT015 BKN020



MET'MAP, your aeronautical weather chart ! - Copyright ORBIFLY December 2007 - Disclaimer

ORBIFLY MET'MAP TEAM :

Programming & Development : Alexandra Zaïnal
Concept & original design : Baudouin d'Aumeries
Assistance for programming : Marc-Olivier Méhu
Technical & hardware support : Manuel Goepfert

Contact : metmap@orbifly.com




SOURCES & CREDITS :

   NOAA